createdAt,value
2019-03-24T00:01:50.150Z,48.65
2019-03-24T00:04:21.130Z,46.02
2019-03-24T00:06:52.071Z,59.55
2019-03-24T00:09:23.041Z,47.33
2019-03-24T00:11:54.032Z,49.08
2019-03-24T00:14:24.993Z,46.58
2019-03-24T00:16:55.954Z,51.45
2019-03-24T00:19:26.946Z,51.37
2019-03-24T00:21:57.875Z,57.20
2019-03-24T00:24:29.344Z,59.90
2019-03-24T00:27:00.440Z,51.08
2019-03-24T00:29:31.789Z,53.95
2019-03-24T00:32:03.884Z,55.20
2019-03-24T00:34:35.038Z,56.40
2019-03-24T00:37:05.985Z,65.70
2019-03-24T00:39:36.964Z,66.87
2019-03-24T00:42:07.900Z,64.65
2019-03-24T00:44:38.879Z,63.08
2019-03-24T00:47:09.827Z,57.62
2019-03-24T00:49:40.812Z,58.17
2019-03-24T00:52:11.752Z,60.60
2019-03-24T00:54:42.748Z,63.58
2019-03-24T00:57:13.697Z,77.92
2019-03-24T00:59:44.774Z,67.90
2019-03-24T01:02:15.748Z,86.80
2019-03-24T01:04:46.810Z,61.85
2019-03-24T01:07:17.761Z,65.62
2019-03-24T01:09:48.739Z,64.07
2019-03-24T01:12:19.675Z,66.35
2019-03-24T01:14:50.649Z,67.60
2019-03-24T01:17:21.674Z,60.03
2019-03-24T01:19:52.650Z,61.02
2019-03-24T01:22:23.606Z,63.80
2019-03-24T01:24:54.580Z,85.55
2019-03-24T01:27:25.531Z,66.67
2019-03-24T01:29:56.503Z,73.10
2019-03-24T01:32:27.508Z,77.60
2019-03-24T01:34:58.577Z,61.95
2019-03-24T01:37:29.523Z,59.95
2019-03-24T01:40:00.496Z,58.33
2019-03-24T01:42:31.461Z,68.15
2019-03-24T01:45:02.435Z,68.87
2019-03-24T01:47:33.402Z,60.50
2019-03-24T01:50:05.976Z,65.87
2019-03-24T01:52:36.919Z,68.90
2019-03-24T01:55:08.222Z,58.58
2019-03-24T01:57:39.185Z,78.12
2019-03-24T02:00:10.456Z,71.82
2019-03-24T02:02:41.397Z,72.20
2019-03-24T02:05:12.458Z,67.00
2019-03-24T02:07:43.440Z,64.82
2019-03-24T02:10:15.108Z,71.72
2019-03-24T02:12:46.071Z,60.15
2019-03-24T02:15:17.354Z,60.48
2019-03-24T02:17:48.245Z,65.62
2019-03-24T02:20:19.230Z,68.97
2019-03-24T02:22:50.193Z,64.75
2019-03-24T02:25:21.221Z,60.00
2019-03-24T02:27:52.259Z,68.28
2019-03-24T02:30:23.207Z,64.80
2019-03-24T02:32:54.188Z,60.50
2019-03-24T02:35:25.139Z,73.67
2019-03-24T02:37:56.148Z,59.33
2019-03-24T02:40:27.173Z,60.85
2019-03-24T02:42:58.146Z,65.35
2019-03-24T02:45:29.117Z,58.60
2019-03-24T02:48:00.144Z,60.65
2019-03-24T02:50:31.092Z,63.78
2019-03-24T02:53:03.066Z,67.58
2019-03-24T02:55:34.034Z,69.67
2019-03-24T02:58:05.015Z,71.33
2019-03-24T03:00:35.962Z,60.23
2019-03-24T03:03:07.015Z,53.92
2019-03-24T03:05:37.954Z,63.83
2019-03-24T03:08:08.928Z,61.53
2019-03-24T03:10:39.883Z,63.30
2019-03-24T03:13:10.854Z,66.70
2019-03-24T03:15:41.803Z,56.48
2019-03-24T03:18:12.778Z,60.45
2019-03-24T03:20:43.722Z,57.23
2019-03-24T03:23:14.715Z,71.45
2019-03-24T03:25:45.751Z,63.98
2019-03-24T03:28:16.696Z,66.47
2019-03-24T03:30:48.696Z,70.47
2019-03-24T03:33:19.781Z,71.02
2019-03-24T03:35:50.832Z,55.17
2019-03-24T03:38:21.799Z,57.60
2019-03-24T03:40:52.821Z,62.08
2019-03-24T03:43:23.812Z,60.75
2019-03-24T03:45:54.836Z,59.63
2019-03-24T03:48:25.963Z,60.03
2019-03-24T03:50:58.042Z,62.00
2019-03-24T03:53:28.991Z,58.65
2019-03-24T03:55:59.974Z,70.52
2019-03-24T03:58:30.989Z,63.48
2019-03-24T04:01:01.972Z,62.60
2019-03-24T04:03:32.920Z,58.92
2019-03-24T04:06:03.915Z,75.12
2019-03-24T04:08:34.924Z,66.40
2019-03-24T04:11:05.918Z,73.47
2019-03-24T04:13:36.858Z,67.67
2019-03-24T04:16:07.832Z,61.23
2019-03-24T04:18:38.779Z,73.95
2019-03-24T04:21:09.802Z,61.05
2019-03-24T04:23:40.920Z,61.63
2019-03-24T04:26:11.903Z,72.10
2019-03-24T04:28:42.845Z,62.15
2019-03-24T04:31:13.904Z,72.87
2019-03-24T04:33:44.955Z,72.62
2019-03-24T04:36:15.993Z,66.70
2019-03-24T04:38:46.961Z,66.45
2019-03-24T04:41:17.917Z,61.10
2019-03-24T04:43:48.896Z,68.17
2019-03-24T04:46:19.832Z,67.97
2019-03-24T04:48:50.817Z,59.77
2019-03-24T04:51:21.764Z,68.10
2019-03-24T04:53:52.746Z,71.80
2019-03-24T04:56:23.689Z,72.62
2019-03-24T04:58:54.666Z,60.33
2019-03-24T05:01:25.608Z,76.30
2019-03-24T05:03:56.593Z,120.13
2019-03-24T05:06:27.786Z,56.95
2019-03-24T05:08:58.812Z,88.35
2019-03-24T05:11:29.761Z,75.52
2019-03-24T05:14:00.732Z,73.45
2019-03-24T05:16:31.677Z,62.62
2019-03-24T05:19:02.650Z,69.67
2019-03-24T05:21:33.626Z,59.27
2019-03-24T05:24:04.605Z,55.40
2019-03-24T05:26:35.559Z,71.75
2019-03-24T05:29:06.528Z,57.33
2019-03-24T05:31:37.465Z,55.38
2019-03-24T05:34:08.438Z,46.85
2019-03-24T05:36:39.522Z,57.53
2019-03-24T05:39:10.463Z,48.38
2019-03-24T05:41:41.428Z,60.63
2019-03-24T05:44:12.384Z,65.90
2019-03-24T05:46:43.349Z,55.80
2019-03-24T05:49:14.294Z,55.78
2019-03-24T05:51:45.380Z,57.27
2019-03-24T05:54:16.328Z,49.42
2019-03-24T05:56:47.302Z,60.63
2019-03-24T05:59:18.251Z,48.55
2019-03-24T06:01:49.230Z,52.35
2019-03-24T06:04:20.177Z,53.45
2019-03-24T06:06:51.154Z,62.03
2019-03-24T06:09:22.173Z,53.60
2019-03-24T06:11:53.157Z,47.50
2019-03-24T06:14:24.098Z,53.52
2019-03-24T06:16:55.081Z,58.48
2019-03-24T06:19:26.073Z,47.90
2019-03-24T06:21:57.008Z,46.63
2019-03-24T06:24:27.986Z,42.48
2019-03-24T06:26:58.929Z,52.88
2019-03-24T06:29:29.912Z,48.28
2019-03-24T06:32:00.848Z,44.23
2019-03-24T06:34:31.950Z,39.03
2019-03-24T06:37:03.036Z,51.65
2019-03-24T06:39:34.016Z,43.63
2019-03-24T06:42:04.959Z,47.53
2019-03-24T06:44:35.924Z,45.43
2019-03-24T06:47:06.867Z,41.33
2019-03-24T06:49:37.838Z,40.58
2019-03-24T06:52:08.780Z,35.45
2019-03-24T06:54:39.824Z,40.08
2019-03-24T06:57:10.764Z,34.18
2019-03-24T06:59:41.739Z,37.63
2019-03-24T07:02:12.686Z,35.65
2019-03-24T07:04:43.727Z,39.83
2019-03-24T07:07:14.669Z,39.48
2019-03-24T07:09:45.639Z,32.55
2019-03-24T07:12:16.589Z,29.40
2019-03-24T07:14:47.559Z,31.02
2019-03-24T07:17:18.530Z,30.52
2019-03-24T07:19:49.488Z,32.73
2019-03-24T07:22:21.206Z,36.65
2019-03-24T07:24:52.139Z,33.25
2019-03-24T07:27:23.248Z,76.85
2019-03-24T07:29:54.188Z,38.75
2019-03-24T07:32:25.147Z,28.90
2019-03-24T07:34:56.087Z,32.88
2019-03-24T07:37:27.059Z,32.90
2019-03-24T07:39:58.003Z,43.52
2019-03-24T07:42:30.087Z,35.73
2019-03-24T07:45:01.032Z,27.77
2019-03-24T07:47:33.102Z,34.90
2019-03-24T07:50:06.111Z,35.48
2019-03-24T07:52:37.087Z,30.97
2019-03-24T07:55:08.687Z,30.15
2019-03-24T07:57:39.651Z,32.40
2019-03-24T08:00:12.390Z,35.30
2019-03-24T08:02:51.298Z,36.58
2019-03-24T08:05:20.513Z,38.48
2019-03-24T08:07:51.485Z,41.48
2019-03-24T08:10:22.430Z,42.00
2019-03-24T08:12:53.496Z,34.88
2019-03-24T08:15:24.615Z,34.05
2019-03-24T08:17:55.593Z,36.20
2019-03-24T08:20:26.529Z,42.40
2019-03-24T08:22:57.502Z,36.95
2019-03-24T08:25:28.481Z,36.53
2019-03-24T08:27:59.424Z,32.63
2019-03-24T08:30:35.778Z,33.67
2019-03-24T08:33:06.959Z,36.95
2019-03-24T08:35:37.944Z,31.93
2019-03-24T08:38:08.890Z,30.75
2019-03-24T08:40:39.881Z,35.68
2019-03-24T08:43:11.829Z,41.85
2019-03-24T08:45:42.826Z,36.40
2019-03-24T08:48:13.788Z,33.98
2019-03-24T08:50:44.813Z,35.28
2019-03-24T08:53:15.757Z,40.40
2019-03-24T08:55:46.779Z,35.10
2019-03-24T08:58:17.768Z,34.05
2019-03-24T09:00:48.822Z,45.45
2019-03-24T09:03:19.845Z,42.93
2019-03-24T09:05:50.866Z,41.23
2019-03-24T09:08:21.816Z,36.15
2019-03-24T09:10:52.796Z,37.42
2019-03-24T09:13:23.779Z,49.85
2019-03-24T09:15:54.741Z,46.65
2019-03-24T09:18:25.720Z,52.50
2019-03-24T09:20:56.698Z,52.25
2019-03-24T09:23:28.736Z,52.23
2019-03-24T09:25:59.698Z,54.20
2019-03-24T09:28:30.677Z,59.67
2019-03-24T09:31:02.616Z,48.05
2019-03-24T09:33:33.716Z,66.07
2019-03-24T09:36:04.667Z,51.13
2019-03-24T09:38:35.652Z,60.70
2019-03-24T09:41:07.807Z,65.22
2019-03-24T09:43:38.788Z,66.33
2019-03-24T09:46:09.735Z,74.97
2019-03-24T09:48:40.749Z,66.95
2019-03-24T09:51:11.739Z,71.90
2019-03-24T09:53:42.735Z,76.35
2019-03-24T09:56:13.735Z,74.25
2019-03-24T09:58:44.819Z,81.00
2019-03-24T10:01:15.768Z,75.85
2019-03-24T10:03:46.853Z,77.50
2019-03-24T10:06:17.897Z,79.03
2019-03-24T10:08:48.853Z,79.53
2019-03-24T10:11:19.840Z,80.85
2019-03-24T10:13:50.990Z,82.47
2019-03-24T10:16:21.976Z,83.10
2019-03-24T10:18:53.025Z,80.03
2019-03-24T10:21:24.080Z,78.30
2019-03-24T10:23:55.030Z,78.40
2019-03-24T10:26:26.060Z,86.33
2019-03-24T10:28:57.065Z,83.57
2019-03-24T10:31:28.049Z,79.47
2019-03-24T10:33:59.001Z,82.77
2019-03-24T10:36:29.996Z,78.30
2019-03-24T10:39:01.017Z,86.93
2019-03-24T10:41:31.998Z,87.00
2019-03-24T10:44:02.958Z,91.77
2019-03-24T10:46:34.027Z,89.80
2019-03-24T10:49:04.973Z,88.90
2019-03-24T10:51:35.962Z,90.93
2019-03-24T10:54:06.916Z,97.80
2019-03-24T10:56:39.149Z,98.60
2019-03-24T10:59:10.131Z,91.07
2019-03-24T11:01:41.118Z,87.87
2019-03-24T11:04:12.089Z,85.93
2019-03-24T11:06:43.141Z,82.37
2019-03-24T11:09:14.240Z,93.37
2019-03-24T11:11:45.223Z,85.13
2019-03-24T11:14:16.205Z,85.33
2019-03-24T11:16:47.164Z,99.33
2019-03-24T11:19:18.141Z,85.67
2019-03-24T11:21:49.096Z,81.37
2019-03-24T11:24:20.074Z,78.83
2019-03-24T11:26:51.028Z,78.77
2019-03-24T11:29:22.011Z,78.17
2019-03-24T11:31:52.960Z,86.30
2019-03-24T11:34:23.945Z,73.13
2019-03-24T11:36:55.989Z,68.93
2019-03-24T11:39:26.974Z,55.63
2019-03-24T11:41:57.924Z,66.87
2019-03-24T11:44:28.968Z,71.27
2019-03-24T11:46:59.924Z,72.47
2019-03-24T11:49:30.922Z,82.83
2019-03-24T11:52:01.867Z,75.73
2019-03-24T11:54:33.870Z,76.77
2019-03-24T11:57:04.990Z,76.87
2019-03-24T11:59:37.055Z,83.33
2019-03-24T12:02:09.390Z,88.40
2019-03-24T12:04:40.414Z,75.67
2019-03-24T12:07:11.363Z,72.10
2019-03-24T12:09:42.440Z,79.73
2019-03-24T12:12:13.508Z,70.87
2019-03-24T12:14:44.555Z,77.33
2019-03-24T12:17:15.601Z,80.40
2019-03-24T12:19:56.488Z,69.47
2019-03-24T12:22:19.270Z,78.83
2019-03-24T12:24:51.256Z,77.43
2019-03-24T12:27:22.201Z,83.37
2019-03-24T12:29:53.177Z,77.67
2019-03-24T12:32:24.125Z,78.93
2019-03-24T12:34:55.106Z,79.97
2019-03-24T12:37:26.053Z,72.30
2019-03-24T12:39:58.056Z,75.17
2019-03-24T12:42:30.857Z,71.53
2019-03-24T12:45:01.840Z,68.70
2019-03-24T12:47:32.890Z,80.37
2019-03-24T12:50:09.366Z,70.90
2019-03-24T12:52:38.257Z,67.20
2019-03-24T12:55:09.641Z,76.63
2019-03-24T12:57:40.593Z,72.90
2019-03-24T13:00:18.883Z,73.73
2019-03-24T13:02:49.840Z,72.80
2019-03-24T13:05:20.924Z,69.20
2019-03-24T13:07:52.488Z,72.77
2019-03-24T13:10:23.527Z,72.87
2019-03-24T13:12:54.522Z,80.20
2019-03-24T13:15:25.507Z,69.43
2019-03-24T13:17:56.461Z,73.20
2019-03-24T13:20:37.824Z,80.47
2019-03-24T13:23:00.104Z,78.03
2019-03-24T13:25:31.257Z,75.63
2019-03-24T13:28:02.204Z,72.47
2019-03-24T13:30:33.183Z,68.93
2019-03-24T13:33:04.338Z,71.60
2019-03-24T13:35:35.325Z,73.63
2019-03-24T13:38:06.291Z,72.57
2019-03-24T13:40:37.340Z,67.50
2019-03-24T13:43:08.297Z,77.17
2019-03-24T13:45:39.272Z,66.67
2019-03-24T13:48:10.240Z,72.70
2019-03-24T13:50:41.288Z,68.53
2019-03-24T13:53:12.238Z,76.17
2019-03-24T13:55:43.215Z,75.40
2019-03-24T13:58:14.245Z,66.20
2019-03-24T14:00:45.333Z,72.80
2019-03-24T14:03:16.326Z,63.33
2019-03-24T14:05:48.342Z,62.77
2019-03-24T14:08:20.276Z,75.57
2019-03-24T14:10:51.252Z,71.50
2019-03-24T14:13:22.285Z,63.53
2019-03-24T14:15:53.274Z,71.90
2019-03-24T14:18:24.423Z,65.67
2019-03-24T14:20:55.431Z,69.47
2019-03-24T14:23:26.451Z,60.53
2019-03-24T14:25:57.444Z,55.60
2019-03-24T14:28:28.394Z,56.43
2019-03-24T14:30:59.545Z,56.87
2019-03-24T14:33:30.545Z,60.50
2019-03-24T14:36:01.563Z,62.20
2019-03-24T14:38:32.552Z,68.93
2019-03-24T14:41:04.531Z,71.80
2019-03-24T14:43:35.566Z,66.90
2019-03-24T14:46:08.073Z,67.60
2019-03-24T14:48:39.083Z,60.50
2019-03-24T14:51:10.065Z,63.73
2019-03-24T14:53:41.082Z,55.07
2019-03-24T14:56:12.051Z,61.27
2019-03-24T14:58:43.022Z,63.73
2019-03-24T15:01:13.976Z,67.80
2019-03-24T15:03:45.152Z,63.43
2019-03-24T15:06:16.122Z,60.50
2019-03-24T15:08:47.169Z,62.03
2019-03-24T15:11:18.213Z,62.60
2019-03-24T15:13:49.285Z,63.50
2019-03-24T15:16:20.398Z,59.07
2019-03-24T15:18:51.539Z,63.57
2019-03-24T15:21:22.542Z,57.40
2019-03-24T15:23:53.582Z,72.43
2019-03-24T15:26:24.569Z,63.87
2019-03-24T15:28:55.516Z,59.93
2019-03-24T15:31:27.895Z,65.93
2019-03-24T15:33:58.858Z,60.70
2019-03-24T15:36:29.845Z,62.13
2019-03-24T15:39:00.790Z,64.97
2019-03-24T15:41:32.274Z,67.60
2019-03-24T15:44:03.242Z,64.27
2019-03-24T15:46:34.306Z,66.30
2019-03-24T15:49:05.257Z,57.77
2019-03-24T15:51:36.368Z,60.90
2019-03-24T15:54:07.394Z,58.43
2019-03-24T15:56:38.363Z,60.37
2019-03-24T15:59:10.319Z,56.57
2019-03-24T16:01:41.336Z,57.50
2019-03-24T16:04:12.289Z,57.10
2019-03-24T16:06:43.466Z,56.47
2019-03-24T16:09:14.508Z,54.90
2019-03-24T16:11:45.502Z,53.00
2019-03-24T16:14:16.484Z,68.80
2019-03-24T16:16:47.541Z,56.77
2019-03-24T16:19:18.574Z,56.67
2019-03-24T16:21:49.541Z,63.73
2019-03-24T16:24:20.505Z,61.20
2019-03-24T16:26:51.458Z,63.37
2019-03-24T16:29:22.426Z,57.10
2019-03-24T16:31:53.452Z,67.40
2019-03-24T16:34:24.435Z,62.40
2019-03-24T16:36:55.384Z,65.63
2019-03-24T16:39:26.394Z,66.43
2019-03-24T16:41:56.378Z,62.50
2019-03-24T16:44:30.098Z,66.23
2019-03-24T16:47:01.153Z,64.80
2019-03-24T16:49:32.142Z,79.50
2019-03-24T16:52:03.088Z,59.53
2019-03-24T16:54:34.141Z,62.97
2019-03-24T16:57:05.088Z,60.10
2019-03-24T16:59:36.105Z,64.33
2019-03-24T17:02:07.249Z,65.00
2019-03-24T17:04:38.250Z,67.60
2019-03-24T17:07:09.314Z,68.20
2019-03-24T17:09:40.371Z,70.20
2019-03-24T17:12:11.355Z,65.70
2019-03-24T17:14:42.308Z,65.43
2019-03-24T17:17:13.291Z,62.47
2019-03-24T17:19:44.329Z,65.47
2019-03-24T17:22:15.310Z,66.37
2019-03-24T17:24:46.367Z,69.53
2019-03-24T17:27:17.362Z,68.97
2019-03-24T17:29:48.382Z,72.03
2019-03-24T17:32:19.370Z,75.60
2019-03-24T17:34:50.325Z,85.07
2019-03-24T17:37:21.306Z,86.67
2019-03-24T17:39:52.263Z,74.70
2019-03-24T17:42:23.241Z,76.70
2019-03-24T17:44:54.205Z,78.83
2019-03-24T17:47:25.226Z,85.07
2019-03-24T17:49:56.227Z,68.97
2019-03-24T17:52:27.145Z,80.60
2019-03-24T17:54:58.771Z,81.02
2019-03-24T17:57:29.777Z,84.55
2019-03-24T18:00:02.082Z,87.72
2019-03-24T18:02:33.166Z,91.63
2019-03-24T18:05:04.762Z,80.80
2019-03-24T18:07:35.718Z,77.85
2019-03-24T18:10:08.696Z,90.35
2019-03-24T18:12:39.651Z,90.38
2019-03-24T18:15:11.659Z,84.58
2019-03-24T18:17:42.610Z,97.05
2019-03-24T18:20:19.088Z,92.85
2019-03-24T18:22:50.039Z,92.88
2019-03-24T18:25:21.075Z,93.50
2019-03-24T18:27:52.026Z,106.12
2019-03-24T18:30:23.120Z,104.35
2019-03-24T18:32:54.076Z,91.02
2019-03-24T18:35:25.058Z,83.12
2019-03-24T18:37:56.007Z,103.70
2019-03-24T18:40:26.991Z,102.22
2019-03-24T18:42:58.151Z,115.55
2019-03-24T18:45:29.133Z,103.58
2019-03-24T18:48:00.089Z,101.58
2019-03-24T18:50:31.080Z,104.58
2019-03-24T18:53:02.279Z,106.05
2019-03-24T18:55:33.291Z,98.52
2019-03-24T18:58:05.491Z,113.75
2019-03-24T19:00:36.475Z,114.00
2019-03-24T19:03:07.470Z,100.78
2019-03-24T19:05:39.424Z,118.53
2019-03-24T19:08:10.429Z,114.35
2019-03-24T19:10:41.369Z,110.35
2019-03-24T19:13:12.361Z,122.50
2019-03-24T19:15:46.294Z,126.53
2019-03-24T19:18:17.360Z,121.97
2019-03-24T19:20:49.363Z,113.62
2019-03-24T19:23:20.404Z,113.85
2019-03-24T19:25:51.454Z,117.90
2019-03-24T19:28:22.443Z,100.12
2019-03-24T19:30:53.414Z,102.27
2019-03-24T19:33:24.533Z,97.92
2019-03-24T19:35:55.525Z,98.30
2019-03-24T19:38:26.641Z,95.97
2019-03-24T19:40:57.591Z,100.53
2019-03-24T19:43:28.584Z,102.45
2019-03-24T19:45:59.586Z,101.90
2019-03-24T19:48:31.765Z,89.97
2019-03-24T19:51:02.783Z,100.97
2019-03-24T19:53:33.886Z,97.95
2019-03-24T19:56:08.055Z,88.15
2019-03-24T19:58:39.034Z,92.78
2019-03-24T20:01:10.027Z,93.87
2019-03-24T20:03:43.393Z,98.12
2019-03-24T20:06:13.654Z,98.37
2019-03-24T20:08:44.600Z,92.45
2019-03-24T20:11:16.698Z,97.57
2019-03-24T20:13:47.667Z,88.95
2019-03-24T20:16:18.734Z,104.80
2019-03-24T20:18:49.681Z,94.22
2019-03-24T20:21:20.992Z,103.58
2019-03-24T20:23:52.006Z,102.87
2019-03-24T20:26:22.997Z,103.83
2019-03-24T20:28:54.042Z,99.45
2019-03-24T20:31:25.259Z,98.22
2019-03-24T20:33:56.276Z,104.30
2019-03-24T20:36:27.241Z,106.55
2019-03-24T20:38:58.228Z,109.80
2019-03-24T20:41:29.186Z,107.75
2019-03-24T20:44:00.177Z,105.52
2019-03-24T20:46:31.127Z,106.95
2019-03-24T20:49:02.141Z,95.10
2019-03-24T20:51:33.220Z,115.12
2019-03-24T20:54:04.371Z,130.85
2019-03-24T20:56:35.471Z,115.97
2019-03-24T20:59:06.457Z,112.40
2019-03-24T21:01:37.420Z,131.05
2019-03-24T21:04:08.457Z,119.53
2019-03-24T21:06:39.444Z,119.40
2019-03-24T21:09:10.891Z,117.13
2019-03-24T21:11:42.045Z,114.42
2019-03-24T21:14:13.033Z,104.60
2019-03-24T21:16:43.983Z,97.92
2019-03-24T21:19:14.973Z,116.20
2019-03-24T21:21:45.916Z,113.05
2019-03-24T21:24:16.888Z,106.92
2019-03-24T21:26:48.975Z,122.33
2019-03-24T21:29:19.953Z,128.32
2019-03-24T21:31:50.931Z,124.25
2019-03-24T21:34:21.890Z,124.30
2019-03-24T21:36:52.931Z,116.15
2019-03-24T21:39:26.223Z,117.08
2019-03-24T21:41:57.436Z,117.37
2019-03-24T21:44:28.391Z,128.45
2019-03-24T21:46:59.382Z,143.25
2019-03-24T21:49:31.333Z,133.85
2019-03-24T21:52:02.306Z,131.47
2019-03-24T21:54:33.254Z,138.12
2019-03-24T21:57:04.380Z,127.20
2019-03-24T21:59:35.326Z,128.47
2019-03-24T22:02:06.393Z,120.25
2019-03-24T22:04:37.321Z,128.35
2019-03-24T22:07:08.291Z,131.82
2019-03-24T22:09:39.335Z,139.95
2019-03-24T22:12:10.472Z,135.22
2019-03-24T22:14:41.427Z,133.35
2019-03-24T22:17:12.410Z,137.00
2019-03-24T22:19:44.346Z,145.85
2019-03-24T22:22:15.340Z,128.05
2019-03-24T22:24:46.290Z,127.15
2019-03-24T22:27:17.268Z,143.10
2019-03-24T22:29:48.191Z,130.52
2019-03-24T22:32:20.266Z,130.25
2019-03-24T22:34:51.245Z,135.48
2019-03-24T22:37:23.382Z,131.05
2019-03-24T22:39:54.528Z,128.80
2019-03-24T22:42:25.818Z,131.20
2019-03-24T22:44:56.899Z,124.85
2019-03-24T22:47:27.860Z,125.35
2019-03-24T22:49:58.833Z,127.00
2019-03-24T22:52:29.862Z,123.33
2019-03-24T22:55:00.856Z,135.03
2019-03-24T22:57:32.758Z,129.65
2019-03-24T23:00:04.818Z,133.90
2019-03-24T23:02:36.168Z,124.20
2019-03-24T23:05:07.631Z,126.50
2019-03-24T23:07:38.606Z,124.25
2019-03-24T23:10:09.598Z,131.30
2019-03-24T23:12:40.566Z,131.40
2019-03-24T23:15:11.839Z,124.82
2019-03-24T23:17:42.786Z,127.72
2019-03-24T23:20:13.765Z,127.55
2019-03-24T23:22:44.703Z,131.07
2019-03-24T23:25:15.675Z,130.50
2019-03-24T23:27:46.614Z,128.10
2019-03-24T23:30:18.121Z,125.62
2019-03-24T23:32:49.119Z,128.72
2019-03-24T23:35:21.264Z,131.43
2019-03-24T23:37:52.382Z,133.20
2019-03-24T23:40:23.658Z,150.50
2019-03-24T23:42:54.663Z,139.43
2019-03-24T23:45:25.645Z,130.27
2019-03-24T23:47:56.595Z,129.80
2019-03-24T23:50:27.673Z,110.08
2019-03-24T23:52:58.731Z,124.82
2019-03-24T23:55:29.704Z,119.77
2019-03-24T23:58:00.656Z,128.90
